Time;durP1;ratioP1;P1;durP2;ratioP2;P2;SDS_P1;SDS_P2;PMS_P1;PMS_P2;Temp;Humidity;BMP_temperature;BMP_pressure;BME280_temperature;BME280_humidity;BME280_pressure;Samples;Min_cycle;Max_cycle;Signal;HPM_P1;HPM_P2
2023/08/20 00:01:40;;;;;;;0.35;0.20;;;25.10;62.20;;;;;;6378543;27;20338;-49
2023/08/20 00:04:46;;;;;;;0.75;0.20;;;25.00;61.90;;;;;;6378786;27;20568;-50
2023/08/20 00:07:49;;;;;;;0.35;0.30;;;25.10;61.80;;;;;;6378583;27;20042;-50
2023/08/20 00:10:50;;;;;;;0.10;0.10;;;25.10;61.90;;;;;;6379274;27;20083;-51
2023/08/20 00:13:54;;;;;;;0.20;0.10;;;25.10;61.90;;;;;;6381548;27;20497;-52
2023/08/20 00:16:56;;;;;;;0.20;0.20;;;25.10;61.70;;;;;;6379280;27;20034;-48
2023/08/20 00:19:58;;;;;;;0.20;0.20;;;25.10;61.90;;;;;;6381684;27;20038;-51
2023/08/20 00:23:00;;;;;;;0.13;0.10;;;25.00;61.70;;;;;;6381177;27;20166;-47
2023/08/20 00:26:02;;;;;;;0.10;0.10;;;25.00;61.80;;;;;;6381538;27;20047;-51
2023/08/20 00:29:04;;;;;;;0.30;0.20;;;25.00;61.70;;;;;;6381279;27;20276;-50
2023/08/20 00:32:07;;;;;;;0.30;0.20;;;25.10;61.90;;;;;;6380899;27;20102;-47
2023/08/20 00:35:09;;;;;;;0.30;0.17;;;24.70;62.00;;;;;;6381117;27;20038;-51
2023/08/20 00:38:12;;;;;;;0.40;0.30;;;25.10;61.90;;;;;;6380001;27;20489;-48
2023/08/20 00:41:14;;;;;;;0.30;0.15;;;25.10;61.80;;;;;;6379105;27;20047;-49
2023/08/20 00:44:15;;;;;;;0.25;0.20;;;25.10;62.50;;;;;;6380669;27;20060;-52
2023/08/20 00:47:18;;;;;;;0.10;0.10;;;25.10;62.00;;;;;;6379817;27;20042;-50
2023/08/20 00:50:21;;;;;;;0.15;0.13;;;24.90;62.30;;;;;;6363117;27;20039;-47
2023/08/20 00:53:24;;;;;;;0.15;0.10;;;24.90;61.90;;;;;;6380338;27;20396;-51
2023/08/20 00:56:29;;;;;;;0.40;0.28;;;24.90;62.50;;;;;;6378628;27;20045;-47
2023/08/20 00:59:33;;;;;;;0.25;0.10;;;25.00;62.30;;;;;;6379194;27;20069;-48
2023/08/20 01:02:34;;;;;;;0.30;0.20;;;24.70;61.80;;;;;;6377695;27;20069;-51
2023/08/20 01:05:45;;;;;;;0.30;0.10;;;25.10;62.10;;;;;;6379778;27;20540;-51
2023/08/20 01:08:52;;;;;;;0.47;0.20;;;24.60;61.70;;;;;;6376524;27;20047;-54
2023/08/20 01:11:59;;;;;;;0.40;0.25;;;25.00;62.10;;;;;;6372140;27;20578;-51
2023/08/20 01:15:01;;;;;;;0.20;0.10;;;25.00;62.00;;;;;;6333985;22;20056;-57
2023/08/20 01:18:03;;;;;;;0.25;0.20;;;25.00;62.00;;;;;;6296541;28;20040;-57
2023/08/20 01:21:29;;;;;;;0.40;0.22;;;25.00;62.10;;;;;;6294370;28;20036;-57
2023/08/20 01:24:45;;;;;;;0.20;0.10;;;24.90;62.50;;;;;;6294209;28;20052;-56
2023/08/20 01:27:57;;;;;;;0.20;0.20;;;25.10;62.20;;;;;;6293160;28;20044;-57
2023/08/20 01:31:00;;;;;;;;;;;24.90;62.10;;;;;;6295145;28;20028;-57
2023/08/20 01:34:03;;;;;;;0.40;0.30;;;25.20;63.20;;;;;;6293446;28;19963;-57
2023/08/20 01:37:05;;;;;;;0.82;0.30;;;25.00;62.20;;;;;;6293125;28;20050;-58
2023/08/20 01:40:08;;;;;;;0.40;0.20;;;24.90;62.30;;;;;;6293643;28;20040;-56
2023/08/20 01:43:09;;;;;;;0.47;0.20;;;24.90;62.30;;;;;;6292505;28;20036;-57
2023/08/20 01:46:12;;;;;;;0.28;0.20;;;24.90;62.30;;;;;;6295583;28;20127;-56
2023/08/20 01:49:14;;;;;;;0.40;0.30;;;25.20;62.70;;;;;;6294487;28;20048;-58
2023/08/20 01:52:15;;;;;;;0.20;0.20;;;25.10;62.50;;;;;;6295618;28;20039;-56
2023/08/20 01:55:22;;;;;;;0.30;0.22;;;25.10;62.20;;;;;;6292860;28;20040;-57
2023/08/20 01:58:26;;;;;;;0.40;0.40;;;24.80;60.00;;;;;;6293976;28;20490;-58
2023/08/20 02:01:29;;;;;;;0.45;0.32;;;24.80;62.00;;;;;;6283520;28;20074;-57
2023/08/20 02:04:30;;;;;;;0.22;0.20;;;24.50;62.10;;;;;;6332653;28;20050;-41
2023/08/20 02:07:33;;;;;;;0.20;0.20;;;24.90;62.30;;;;;;6352883;28;20024;-43
2023/08/20 02:10:35;;;;;;;0.30;0.30;;;24.90;62.20;;;;;;6352795;28;20095;-44
2023/08/20 02:13:37;;;;;;;0.75;0.10;;;24.90;62.20;;;;;;6352967;28;20028;-46
2023/08/20 02:16:40;;;;;;;0.32;0.20;;;25.00;62.40;;;;;;6352628;28;20034;-43
2023/08/20 02:19:41;;;;;;;0.20;0.10;;;24.70;61.80;;;;;;6352871;28;20039;-43
2023/08/20 02:22:43;;;;;;;0.20;0.17;;;24.70;62.30;;;;;;6352591;28;20027;-42
2023/08/20 02:25:45;;;;;;;0.28;0.20;;;24.80;62.20;;;;;;6352053;28;20047;-43
2023/08/20 02:28:46;;;;;;;0.20;0.20;;;24.80;62.30;;;;;;6352706;28;20017;-44
2023/08/20 02:31:48;;;;;;;0.22;0.20;;;24.70;62.10;;;;;;6352489;28;20020;-42
2023/08/20 02:34:55;;;;;;;0.28;0.25;;;24.90;62.40;;;;;;6356806;28;20047;-43
2023/08/20 02:38:00;;;;;;;0.38;0.17;;;24.70;62.30;;;;;;6357652;28;20043;-46
2023/08/20 02:41:02;;;;;;;0.30;0.30;;;24.80;62.40;;;;;;6358148;28;20020;-45
2023/08/20 02:44:04;;;;;;;0.40;0.20;;;24.80;62.30;;;;;;6357769;28;20067;-43
2023/08/20 02:47:07;;;;;;;0.20;0.20;;;24.80;62.40;;;;;;6357480;28;20087;-43
2023/08/20 02:50:09;;;;;;;0.50;0.20;;;24.70;62.50;;;;;;6358026;28;20038;-46
2023/08/20 02:53:11;;;;;;;0.40;0.10;;;24.70;62.60;;;;;;6357999;28;20034;-46
2023/08/20 02:56:12;;;;;;;0.20;0.20;;;24.80;62.70;;;;;;6357314;28;20023;-45
2023/08/20 02:59:14;;;;;;;0.17;0.10;;;24.60;62.80;;;;;;6357802;28;20031;-45
2023/08/20 03:02:19;;;;;;;0.32;0.30;;;24.60;62.20;;;;;;6357869;28;20044;-46
2023/08/20 03:05:21;;;;;;;0.20;0.20;;;24.70;62.90;;;;;;6357530;28;20071;-43
2023/08/20 03:08:22;;;;;;;0.70;0.25;;;24.50;62.80;;;;;;6356879;28;20069;-46
2023/08/20 03:11:23;;;;;;;0.45;0.17;;;24.60;63.00;;;;;;6357743;28;20064;-45
2023/08/20 03:14:25;;;;;;;0.40;0.17;;;24.70;63.00;;;;;;6357624;28;20024;-44
2023/08/20 03:17:30;;;;;;;0.50;0.20;;;24.70;63.20;;;;;;6357529;28;20020;-47
2023/08/20 03:20:32;;;;;;;0.52;0.20;;;24.70;63.10;;;;;;6356950;28;20020;-42
2023/08/20 03:23:34;;;;;;;0.22;0.17;;;24.70;63.30;;;;;;6357349;28;20047;-44
2023/08/20 03:26:35;;;;;;;0.73;0.20;;;24.60;63.10;;;;;;6357099;28;20024;-42
2023/08/20 03:29:37;;;;;;;0.20;0.10;;;24.50;63.40;;;;;;6356946;28;20020;-44
2023/08/20 03:32:39;;;;;;;0.20;0.20;;;24.60;63.30;;;;;;6356816;28;20016;-47
2023/08/20 03:35:45;;;;;;;0.20;0.20;;;24.60;63.60;;;;;;6357326;28;20027;-46
2023/08/20 03:38:47;;;;;;;0.40;0.20;;;24.60;63.60;;;;;;6357240;28;20040;-44
2023/08/20 03:41:50;;;;;;;0.63;0.30;;;24.50;63.70;;;;;;6356531;28;20066;-45
2023/08/20 03:44:52;;;;;;;2.55;0.30;;;24.70;63.60;;;;;;6356491;28;20024;-42
2023/08/20 03:47:57;;;;;;;0.40;0.30;;;24.50;63.80;;;;;;6356737;28;20024;-45
2023/08/20 03:51:01;;;;;;;0.20;0.20;;;24.40;63.60;;;;;;6356615;28;20020;-45
2023/08/20 03:54:03;;;;;;;0.38;0.30;;;24.40;63.90;;;;;;6356176;28;20020;-45
2023/08/20 03:57:05;;;;;;;0.30;0.20;;;24.50;63.80;;;;;;6356336;28;20095;-46
2023/08/20 04:00:10;;;;;;;0.80;0.30;;;24.50;64.00;;;;;;6356847;28;20016;-46
2023/08/20 04:03:20;;;;;;;0.40;0.20;;;24.50;63.90;;;;;;6356661;28;20023;-42
2023/08/20 04:06:22;;;;;;;0.20;0.15;;;24.60;64.00;;;;;;6356150;28;20024;-45
2023/08/20 04:09:23;;;;;;;0.10;0.10;;;24.50;64.00;;;;;;6356204;28;20012;-43
2023/08/20 04:12:25;;;;;;;1.20;0.50;;;24.50;64.00;;;;;;6356367;28;20016;-47
2023/08/20 04:15:27;;;;;;;0.45;0.30;;;24.50;63.90;;;;;;6356107;28;20048;-46
2023/08/20 04:18:29;;;;;;;0.30;0.17;;;24.50;63.90;;;;;;6356293;28;20020;-45
2023/08/20 04:21:31;;;;;;;0.43;0.10;;;24.40;63.80;;;;;;6356517;28;20070;-42
2023/08/20 04:24:34;;;;;;;0.75;0.30;;;24.30;64.00;;;;;;6356350;28;20023;-43
2023/08/20 04:27:35;;;;;;;0.40;0.30;;;24.20;63.80;;;;;;6355645;28;20028;-45
2023/08/20 04:30:39;;;;;;;0.20;0.20;;;24.30;63.90;;;;;;6355509;28;20034;-44
2023/08/20 04:33:42;;;;;;;0.85;0.20;;;24.40;63.80;;;;;;6355967;28;20020;-41
2023/08/20 04:36:43;;;;;;;0.40;0.22;;;24.50;64.00;;;;;;6356017;28;20048;-44
2023/08/20 04:39:45;;;;;;;0.65;0.38;;;24.40;63.80;;;;;;6355400;28;20035;-45
2023/08/20 04:42:46;;;;;;;0.20;0.20;;;24.30;63.80;;;;;;6355910;28;20024;-45
2023/08/20 04:45:50;;;;;;;0.22;0.20;;;24.40;63.30;;;;;;6355825;28;20023;-43
2023/08/20 04:48:52;;;;;;;0.30;0.10;;;24.40;64.40;;;;;;6355486;28;20293;-44
2023/08/20 04:51:54;;;;;;;0.30;0.30;;;24.30;63.60;;;;;;6355247;28;20019;-42
2023/08/20 04:54:56;;;;;;;0.20;0.10;;;24.30;63.70;;;;;;6354905;28;20020;-44
2023/08/20 04:57:57;;;;;;;0.20;0.20;;;24.30;63.70;;;;;;6355573;28;20020;-45
2023/08/20 05:00:59;;;;;;;0.15;0.15;;;24.20;63.60;;;;;;6354872;28;20023;-43
2023/08/20 05:04:05;;;;;;;0.65;0.20;;;24.50;63.70;;;;;;6354586;28;20016;-44
2023/08/20 05:07:06;;;;;;;0.52;0.10;;;24.40;63.70;;;;;;6353915;28;20034;-42
2023/08/20 05:10:08;;;;;;;0.40;0.32;;;24.20;63.30;;;;;;6354305;28;20039;-46
2023/08/20 05:13:10;;;;;;;2.28;0.50;;;24.40;63.80;;;;;;6353715;28;20079;-45
2023/08/20 05:16:12;;;;;;;0.68;0.20;;;24.20;63.50;;;;;;6354340;28;20016;-44
2023/08/20 09:21:52;;;;;;;0.20;0.10;;;24.40;63.20;;;;;;7098427;23;20133;-57
2023/08/20 09:24:57;;;;;;;0.25;0.20;;;24.40;65.20;;;;;;6162495;28;20516;-56
2023/08/20 09:28:02;;;;;;;0.45;0.20;;;24.00;64.60;;;;;;6162790;28;20134;-57
2023/08/20 09:31:04;;;;;;;0.40;0.20;;;24.60;64.70;;;;;;6165604;28;20045;-56
2023/08/20 09:34:07;;;;;;;0.30;0.17;;;24.50;64.70;;;;;;6156942;28;20045;-57
2023/08/20 09:37:10;;;;;;;0.47;0.30;;;24.60;64.50;;;;;;6165836;28;20050;-57
2023/08/20 09:40:11;;;;;;;0.52;0.10;;;24.30;64.30;;;;;;6165513;28;20125;-58
2023/08/20 09:43:16;;;;;;;1.00;0.20;;;24.60;64.30;;;;;;6161394;28;20537;-58
2023/08/20 09:46:21;;;;;;;0.40;0.20;;;24.60;64.30;;;;;;6155518;28;20047;-57
2023/08/20 09:49:27;;;;;;;0.38;0.20;;;24.40;64.10;;;;;;6158055;28;20043;-58
2023/08/20 09:52:40;;;;;;;0.50;0.20;;;24.60;64.10;;;;;;6156506;28;20050;-56
2023/08/20 09:55:43;;;;;;;0.55;0.20;;;24.60;64.10;;;;;;6157937;28;20042;-56
2023/08/20 09:58:46;;;;;;;0.32;0.20;;;24.50;63.90;;;;;;6179648;28;20465;-58
2023/08/20 10:01:48;;;;;;;0.38;0.17;;;24.70;64.00;;;;;;6188015;28;20101;-58
2023/08/20 10:04:51;;;;;;;0.38;0.20;;;24.50;63.80;;;;;;6186650;28;20042;-57
2023/08/20 10:07:54;;;;;;;0.30;0.20;;;24.70;63.70;;;;;;6152570;28;20046;-56
2023/08/20 10:10:56;;;;;;;0.55;0.30;;;24.50;63.90;;;;;;6124020;28;20042;-58
2023/08/20 10:13:57;;;;;;;1.13;0.45;;;24.80;63.50;;;;;;6190035;28;20038;-56
2023/08/20 10:17:07;;;;;;;0.22;0.10;;;24.80;63.70;;;;;;6187420;28;20117;-58
2023/08/20 10:20:10;;;;;;;0.20;0.20;;;24.60;63.40;;;;;;6179330;28;20517;-58
2023/08/20 10:23:13;;;;;;;0.45;0.20;;;24.60;63.30;;;;;;6189138;28;20038;-57
2023/08/20 10:26:16;;;;;;;0.32;0.20;;;24.70;63.20;;;;;;6186041;28;20496;-58
2023/08/20 10:29:34;;;;;;;0.45;0.30;;;24.90;63.40;;;;;;6181818;28;20328;-58
2023/08/20 10:32:47;;;;;;;0.43;0.20;;;24.80;63.00;;;;;;6186562;28;20035;-57
2023/08/20 10:35:49;;;;;;;0.40;0.22;;;24.60;62.80;;;;;;6187950;28;20043;-58
2023/08/20 10:38:56;;;;;;;0.30;0.20;;;24.60;62.50;;;;;;6187975;28;20053;-57
2023/08/20 10:42:08;;;;;;;0.20;0.13;;;24.80;62.50;;;;;;6181085;28;20081;-57
2023/08/20 10:45:11;;;;;;;0.32;0.20;;;24.90;62.60;;;;;;6186794;28;20039;-58
2023/08/20 10:48:12;;;;;;;0.22;0.15;;;24.90;62.50;;;;;;6183937;28;20043;-56
2023/08/20 10:51:16;;;;;;;0.25;0.20;;;24.40;61.70;;;;;;6186384;28;20117;-58
2023/08/20 10:54:21;;;;;;;0.10;0.10;;;24.60;62.00;;;;;;6182480;28;20039;-57
2023/08/20 10:57:33;;;;;;;0.10;0.10;;;25.00;62.10;;;;;;6192714;28;20054;-58
2023/08/20 11:00:37;;;;;;;0.63;0.20;;;24.90;62.10;;;;;;6175853;28;20153;-58
2023/08/20 11:03:39;;;;;;;0.50;0.30;;;24.90;61.90;;;;;;6185227;28;20038;-56
2023/08/20 11:06:41;;;;;;;0.30;0.20;;;25.10;61.90;;;;;;6189789;28;20093;-58
2023/08/20 11:09:44;;;;;;;0.40;0.20;;;25.00;61.70;;;;;;6188436;28;20034;-56
2023/08/20 11:12:47;;;;;;;0.20;0.15;;;24.60;61.40;;;;;;6191182;28;20351;-58
2023/08/20 11:15:54;;;;;;;0.52;0.20;;;24.90;61.40;;;;;;6184051;28;20101;-58
2023/08/20 11:18:57;;;;;;;0.25;0.10;;;24.90;61.10;;;;;;6192087;28;20641;-58
2023/08/20 11:21:58;;;;;;;0.38;0.30;;;25.00;61.00;;;;;;6192125;28;20109;-58
2023/08/20 11:25:01;;;;;;;0.20;0.20;;;24.90;60.80;;;;;;6192805;28;20042;-58
2023/08/20 11:28:03;;;;;;;0.10;0.10;;;25.10;59.80;;;;;;6183106;28;20050;-58
2023/08/20 11:31:04;;;;;;;0.10;0.10;;;25.10;60.60;;;;;;6189031;28;20035;-58
2023/08/20 11:34:07;;;;;;;0.32;0.20;;;24.70;60.30;;;;;;6190687;28;20038;-57
2023/08/20 11:37:12;;;;;;;0.10;0.10;;;25.10;60.10;;;;;;6188342;28;20039;-58
2023/08/20 11:40:14;;;;;;;0.20;0.20;;;25.00;60.00;;;;;;6188483;28;20490;-57
2023/08/20 11:43:17;;;;;;;0.10;0.10;;;25.00;59.90;;;;;;6191819;28;20054;-57
2023/08/20 11:46:20;;;;;;;0.32;0.15;;;25.10;59.70;;;;;;6192194;28;20050;-56
2023/08/20 11:49:28;;;;;;;0.10;0.10;;;25.20;59.90;;;;;;6182176;28;20359;-57
2023/08/20 11:52:33;;;;;;;0.13;0.00;;;24.90;59.50;;;;;;6187879;28;20294;-57
2023/08/20 11:55:41;;;;;;;0.10;0.10;;;25.10;59.70;;;;;;6190363;28;20449;-55
2023/08/20 11:58:43;;;;;;;0.20;0.20;;;25.30;59.60;;;;;;6190339;28;20050;-56
2023/08/20 12:01:50;;;;;;;0.10;0.10;;;25.10;59.60;;;;;;6180429;28;20045;-57
2023/08/20 12:04:52;;;;;;;0.10;0.10;;;25.20;59.30;;;;;;6191428;28;20717;-58
2023/08/20 12:07:58;;;;;;;0.20;0.10;;;24.90;59.30;;;;;;6191186;28;20414;-56
2023/08/20 12:11:00;;;;;;;0.28;0.10;;;24.80;59.00;;;;;;6166900;28;20599;-58
2023/08/20 12:14:03;;;;;;;0.20;0.10;;;25.00;59.00;;;;;;6181976;28;20528;-57
2023/08/20 12:17:05;;;;;;;0.20;0.15;;;25.00;58.90;;;;;;6189676;28;20116;-56
2023/08/20 12:20:12;;;;;;;0.30;0.20;;;25.10;59.00;;;;;;6191175;28;20042;-58
2023/08/20 12:23:15;;;;;;;0.25;0.20;;;24.70;58.50;;;;;;6181573;28;20547;-57
2023/08/20 12:26:18;;;;;;;0.30;0.10;;;25.10;58.70;;;;;;6191083;28;20045;-57
2023/08/20 12:29:20;;;;;;;0.20;0.20;;;25.10;58.30;;;;;;6190472;28;20191;-58
2023/08/20 12:32:21;;;;;;;0.45;0.20;;;25.10;58.60;;;;;;6179083;28;20286;-58
2023/08/20 12:35:23;;;;;;;0.20;0.20;;;25.00;58.40;;;;;;6180768;28;20044;-57
2023/08/20 12:38:25;;;;;;;0.28;0.08;;;24.70;58.30;;;;;;6191016;28;20061;-58
2023/08/20 12:41:29;;;;;;;0.30;0.20;;;24.90;56.50;;;;;;6186514;28;20058;-55
2023/08/20 12:44:31;;;;;;;0.98;0.10;;;25.10;58.10;;;;;;6174369;28;20038;-58
2023/08/20 12:47:32;;;;;;;0.95;0.10;;;25.20;58.30;;;;;;6175542;28;20034;-58
2023/08/20 12:50:34;;;;;;;0.10;0.10;;;25.20;58.10;;;;;;6190959;28;20034;-57
2023/08/20 12:53:35;;;;;;;0.20;0.20;;;25.10;57.90;;;;;;6187329;28;20050;-58
2023/08/20 12:56:41;;;;;;;0.20;0.17;;;25.20;57.90;;;;;;6183484;28;20046;-57
2023/08/20 12:59:43;;;;;;;0.20;0.10;;;24.90;57.40;;;;;;6187152;28;20045;-59
2023/08/20 13:02:45;;;;;;;0.20;0.20;;;25.10;57.70;;;;;;6184363;28;20537;-58
2023/08/20 13:05:47;;;;;;;0.20;0.10;;;25.20;57.60;;;;;;6189261;28;20494;-58
2023/08/20 13:08:49;;;;;;;0.10;0.10;;;25.20;57.70;;;;;;6180071;28;20599;-56
2023/08/20 13:11:55;;;;;;;0.47;0.30;;;25.30;57.60;;;;;;6188599;28;20035;-57
2023/08/20 13:14:57;;;;;;;0.32;0.22;;;25.00;57.40;;;;;;6177801;28;20513;-58
2023/08/20 13:17:59;;;;;;;0.10;0.10;;;25.30;57.30;;;;;;6182797;28;20347;-58
2023/08/20 13:21:03;;;;;;;0.10;0.10;;;25.20;57.30;;;;;;6178253;28;20034;-58
2023/08/20 13:24:06;;;;;;;0.47;0.32;;;25.20;56.90;;;;;;6189732;28;20050;-58
2023/08/20 13:27:08;;;;;;;0.20;0.10;;;25.30;57.30;;;;;;6183499;28;20042;-58
2023/08/20 13:30:11;;;;;;;0.20;0.10;;;24.90;56.70;;;;;;6188021;28;20501;-59
2023/08/20 13:33:13;;;;;;;0.10;0.10;;;24.90;56.90;;;;;;6183511;28;20529;-59
2023/08/20 13:36:16;;;;;;;0.00;0.00;;;25.20;57.10;;;;;;6186837;28;20050;-58
2023/08/20 13:39:18;;;;;;;0.20;0.20;;;25.10;57.00;;;;;;6179955;28;20035;-58
2023/08/20 13:42:20;;;;;;;0.20;0.10;;;25.30;57.90;;;;;;6181544;28;20039;-58
2023/08/20 13:45:24;;;;;;;0.10;0.10;;;25.00;57.20;;;;;;6183128;28;20038;-57
2023/08/20 13:48:25;;;;;;;0.32;0.10;;;25.50;57.10;;;;;;6189335;28;20495;-58
2023/08/20 13:51:27;;;;;;;0.10;0.10;;;25.40;57.10;;;;;;6189040;28;20054;-58
2023/08/20 13:54:28;;;;;;;0.55;0.10;;;25.30;57.00;;;;;;6176487;28;20468;-58
2023/08/20 13:57:31;;;;;;;0.30;0.20;;;25.10;56.80;;;;;;6186191;28;20493;-58
2023/08/20 14:00:35;;;;;;;0.10;0.10;;;25.20;56.80;;;;;;6178415;28;20035;-59
2023/08/20 14:03:40;;;;;;;0.17;0.17;;;25.50;57.10;;;;;;6189437;28;20491;-59
2023/08/20 14:06:41;;;;;;;0.10;0.10;;;25.00;56.60;;;;;;6179275;28;20322;-58
2023/08/20 14:09:43;;;;;;;0.75;0.20;;;25.20;56.80;;;;;;6185522;28;20414;-58
2023/08/20 14:12:45;;;;;;;0.13;0.13;;;25.30;56.90;;;;;;6189991;28;20046;-58
2023/08/20 14:15:47;;;;;;;0.40;0.15;;;25.30;57.00;;;;;;6181355;28;20452;-57
2023/08/20 14:18:51;;;;;;;0.10;0.10;;;25.20;56.60;;;;;;6180077;28;20556;-58
2023/08/20 14:21:55;;;;;;;0.22;0.22;;;25.30;56.80;;;;;;6182174;28;20038;-58
2023/08/20 14:24:57;;;;;;;0.30;0.10;;;25.50;57.00;;;;;;6188464;28;20031;-58
2023/08/20 14:27:59;;;;;;;0.20;0.20;;;25.40;56.90;;;;;;6180543;28;20043;-58
2023/08/20 14:31:03;;;;;;;0.30;0.20;;;25.40;56.70;;;;;;6192930;28;20038;-57
2023/08/20 14:34:05;;;;;;;0.10;0.10;;;25.90;57.10;;;;;;6192289;28;20268;-58
2023/08/20 14:37:07;;;;;;;0.43;0.10;;;25.20;55.90;;;;;;6181129;28;20060;-58
2023/08/20 14:40:10;;;;;;;0.10;0.10;;;25.30;56.90;;;;;;6183822;28;20030;-58
2023/08/20 14:43:12;;;;;;;0.25;0.10;;;25.50;56.70;;;;;;6192017;28;20092;-58
2023/08/20 14:46:14;;;;;;;0.10;0.10;;;25.40;56.70;;;;;;6192759;28;20042;-58
2023/08/20 14:49:18;;;;;;;0.10;0.10;;;25.40;56.20;;;;;;6184281;28;20283;-59
2023/08/20 14:52:19;;;;;;;0.30;0.10;;;25.30;57.10;;;;;;6182628;28;20525;-58
2023/08/20 14:55:22;;;;;;;0.88;0.10;;;25.30;56.50;;;;;;6193165;28;20039;-58
2023/08/20 14:58:24;;;;;;;0.20;0.20;;;25.10;56.50;;;;;;6190986;28;20486;-59
2023/08/20 15:01:25;;;;;;;0.20;0.20;;;25.10;56.20;;;;;;6185493;28;20057;-58
2023/08/20 15:04:27;;;;;;;0.20;0.20;;;25.50;56.90;;;;;;6188093;28;20057;-57
2023/08/20 15:07:29;;;;;;;0.20;0.10;;;25.60;56.90;;;;;;6192455;28;20051;-58
2023/08/20 15:10:30;;;;;;;0.15;0.15;;;25.30;56.80;;;;;;6192216;28;20057;-58
2023/08/20 15:13:32;;;;;;;0.40;0.20;;;25.40;56.70;;;;;;6184681;28;20050;-57
2023/08/20 15:16:34;;;;;;;0.75;0.20;;;25.40;56.80;;;;;;6192247;28;20520;-58
2023/08/20 15:19:35;;;;;;;0.10;0.08;;;25.30;56.70;;;;;;6190602;28;20046;-57
2023/08/20 15:22:43;;;;;;;0.40;0.10;;;25.30;56.90;;;;;;6189275;28;20069;-58
2023/08/20 15:25:47;;;;;;;0.20;0.20;;;25.70;54.90;;;;;;6183548;28;20043;-57
2023/08/20 15:28:52;;;;;;;0.32;0.20;;;25.30;56.80;;;;;;6192066;28;20039;-58
2023/08/20 15:31:53;;;;;;;0.20;0.10;;;25.70;57.10;;;;;;6192347;28;20112;-56
2023/08/20 15:34:55;;;;;;;0.30;0.10;;;25.50;57.00;;;;;;6189965;28;20042;-56
2023/08/20 15:37:57;;;;;;;0.25;0.10;;;25.00;56.60;;;;;;6185735;28;20034;-57
2023/08/20 15:40:59;;;;;;;0.10;0.10;;;25.30;56.90;;;;;;6188959;28;20061;-57
2023/08/20 15:44:01;;;;;;;0.20;0.20;;;25.30;56.90;;;;;;6188866;28;20038;-58
2023/08/20 15:47:06;;;;;;;0.10;0.10;;;25.70;57.20;;;;;;6182702;28;20057;-57
2023/08/20 15:50:08;;;;;;;0.10;0.10;;;25.20;56.90;;;;;;6188811;28;20050;-58
2023/08/20 15:53:10;;;;;;;0.35;0.20;;;25.50;57.00;;;;;;6188663;28;20257;-57
2023/08/20 15:56:11;;;;;;;0.32;0.15;;;25.30;56.80;;;;;;6191831;28;20047;-58
2023/08/20 15:59:13;;;;;;;0.17;0.10;;;25.50;57.10;;;;;;6183261;28;20540;-55
2023/08/20 16:02:16;;;;;;;0.32;0.17;;;25.60;57.00;;;;;;6187272;28;20088;-57
2023/08/20 16:05:18;;;;;;;0.55;0.25;;;25.40;56.90;;;;;;6175435;28;20113;-57
2023/08/20 16:08:19;;;;;;;0.45;0.30;;;25.40;56.80;;;;;;6168191;28;20045;-58
2023/08/20 16:11:21;;;;;;;0.20;0.20;;;25.10;57.10;;;;;;6170300;28;20057;-57
2023/08/20 16:14:24;;;;;;;0.22;0.10;;;25.50;56.70;;;;;;6174752;28;20080;-57
2023/08/20 16:17:29;;;;;;;0.57;0.17;;;25.30;56.70;;;;;;6182440;28;20043;-57
2023/08/20 16:20:33;;;;;;;0.10;0.10;;;25.60;57.50;;;;;;6180477;28;20529;-57
2023/08/20 16:23:35;;;;;;;0.20;0.20;;;25.60;56.80;;;;;;6184573;28;20065;-57
2023/08/20 16:26:39;;;;;;;0.30;0.10;;;25.40;56.50;;;;;;6173877;28;20045;-57
2023/08/20 16:29:41;;;;;;;0.20;0.15;;;25.50;56.80;;;;;;6189868;28;20118;-55
2023/08/20 16:32:43;;;;;;;0.10;0.10;;;25.80;56.50;;;;;;6189746;28;20028;-44
2023/08/20 16:35:45;;;;;;;0.32;0.10;;;25.70;56.60;;;;;;6230187;28;20086;-45
2023/08/20 16:38:47;;;;;;;0.00;0.00;;;25.50;56.10;;;;;;6231560;28;20074;-47
2023/08/20 16:41:49;;;;;;;0.20;0.20;;;25.70;54.40;;;;;;6231796;28;20102;-43
2023/08/20 16:44:51;;;;;;;0.20;0.10;;;25.70;56.10;;;;;;6230788;28;20030;-45
2023/08/20 16:47:53;;;;;;;0.30;0.10;;;25.80;56.20;;;;;;6230656;28;20046;-45
2023/08/20 16:50:56;;;;;;;0.10;0.10;;;25.50;55.70;;;;;;6230881;28;20022;-46
2023/08/20 16:53:58;;;;;;;0.10;0.10;;;25.70;55.90;;;;;;6231559;28;20029;-45
2023/08/20 16:57:00;;;;;;;0.32;0.10;;;25.50;55.30;;;;;;6230651;28;20022;-45
2023/08/20 17:00:06;;;;;;;0.10;0.10;;;25.80;55.60;;;;;;6230585;28;20050;-45
2023/08/20 17:03:10;;;;;;;0.28;0.20;;;25.70;54.80;;;;;;6231375;28;20033;-45
2023/08/20 17:06:12;;;;;;;0.20;0.20;;;25.50;55.00;;;;;;6230324;28;20018;-45
2023/08/20 17:09:15;;;;;;;0.20;0.20;;;25.80;55.20;;;;;;6230211;28;20050;-43
2023/08/20 17:12:19;;;;;;;0.32;0.20;;;25.80;55.20;;;;;;6230949;28;20026;-44
2023/08/20 17:15:26;;;;;;;0.20;0.17;;;25.90;54.90;;;;;;6230763;28;20027;-43
2023/08/20 17:18:31;;;;;;;0.20;0.20;;;25.60;54.50;;;;;;6229607;28;20026;-48
2023/08/20 17:21:36;;;;;;;0.20;0.20;;;25.80;54.60;;;;;;6229678;28;20049;-43
2023/08/20 17:24:38;;;;;;;0.10;0.10;;;25.90;51.80;;;;;;6230730;28;20049;-43
2023/08/20 17:27:39;;;;;;;0.20;0.20;;;25.80;54.10;;;;;;6230569;28;20030;-44
2023/08/20 17:30:42;;;;;;;0.10;0.10;;;25.90;54.40;;;;;;6229965;28;20035;-42
2023/08/20 17:33:46;;;;;;;0.20;0.17;;;25.90;53.90;;;;;;6230104;28;20027;-45
2023/08/20 17:36:49;;;;;;;0.13;0.10;;;25.90;51.30;;;;;;6230752;28;20022;-47
2023/08/20 17:39:52;;;;;;;0.20;0.20;;;25.90;53.90;;;;;;6230388;28;20022;-42
2023/08/20 17:42:54;;;;;;;0.20;0.10;;;25.70;53.60;;;;;;6229831;28;20030;-45
2023/08/20 17:45:56;;;;;;;0.63;0.30;;;25.90;53.30;;;;;;6228753;28;20038;-42
2023/08/20 17:48:59;;;;;;;0.30;0.20;;;25.90;53.80;;;;;;6228673;28;20094;-45
2023/08/20 17:52:00;;;;;;;0.20;0.13;;;25.90;53.70;;;;;;6228075;28;20030;-47
2023/08/20 17:55:07;;;;;;;0.28;0.17;;;25.70;53.40;;;;;;6228481;28;20033;-44
2023/08/20 17:58:10;;;;;;;0.32;0.20;;;25.70;53.70;;;;;;6229626;28;20053;-44
2023/08/20 18:01:14;;;;;;;0.20;0.20;;;25.60;53.80;;;;;;6229566;28;20018;-43
2023/08/20 18:04:16;;;;;;;0.20;0.20;;;25.70;53.50;;;;;;6232193;28;20045;-42
2023/08/20 18:07:18;;;;;;;0.25;0.10;;;25.70;53.70;;;;;;6232942;28;20036;-44
2023/08/20 18:10:23;;;;;;;0.20;0.10;;;25.70;53.10;;;;;;6234042;28;20042;-44
2023/08/20 18:13:27;;;;;;;0.25;0.13;;;26.00;53.60;;;;;;6234061;28;20022;-44
2023/08/20 18:16:33;;;;;;;0.10;0.10;;;25.80;50.90;;;;;;6233711;28;20018;-44
2023/08/20 18:19:34;;;;;;;0.15;0.10;;;25.70;53.50;;;;;;6233648;28;20046;-46
2023/08/20 18:22:36;;;;;;;0.40;0.20;;;25.80;53.30;;;;;;6234238;28;20038;-46
2023/08/20 18:25:38;;;;;;;0.10;0.10;;;25.70;53.50;;;;;;6233386;28;20026;-43
2023/08/20 18:28:39;;;;;;;0.20;0.10;;;25.80;53.50;;;;;;6233321;28;20049;-43
2023/08/20 18:31:48;;;;;;;0.20;0.20;;;25.70;53.90;;;;;;6233361;28;20026;-44
2023/08/20 18:34:53;;;;;;;0.15;0.10;;;25.60;54.10;;;;;;6234034;28;20048;-48
2023/08/20 18:37:54;;;;;;;0.20;0.10;;;25.60;54.70;;;;;;6233131;28;20027;-48
2023/08/20 18:40:56;;;;;;;0.10;0.10;;;26.00;56.10;;;;;;6232660;28;20476;-47
2023/08/20 18:43:58;;;;;;;0.40;0.20;;;25.50;55.80;;;;;;6233665;28;20033;-44
2023/08/20 18:47:00;;;;;;;0.28;0.22;;;25.60;56.20;;;;;;6233736;28;20023;-45
2023/08/20 18:50:02;;;;;;;0.20;0.10;;;25.70;56.80;;;;;;6232568;28;20086;-44
2023/08/20 18:53:04;;;;;;;0.10;0.10;;;25.70;57.80;;;;;;6232602;28;20022;-46
2023/08/20 18:56:06;;;;;;;0.30;0.30;;;25.60;57.80;;;;;;6232577;28;20189;-44
2023/08/20 18:59:11;;;;;;;0.30;0.20;;;25.60;57.80;;;;;;6231335;28;20042;-45
2023/08/20 19:02:16;;;;;;;0.17;0.15;;;25.70;59.10;;;;;;6231686;28;20029;-44
2023/08/20 19:05:17;;;;;;;0.55;0.10;;;25.50;59.00;;;;;;6231061;28;20027;-44
2023/08/20 19:08:22;;;;;;;0.10;0.10;;;25.50;59.30;;;;;;6231547;28;20050;-42
2023/08/20 19:11:24;;;;;;;0.10;0.10;;;25.40;59.50;;;;;;6231870;28;20041;-46
2023/08/20 19:14:25;;;;;;;0.10;0.10;;;25.50;61.50;;;;;;6230638;28;20095;-42
2023/08/20 19:17:27;;;;;;;0.20;0.20;;;25.30;59.80;;;;;;6233027;28;20066;-45
2023/08/20 19:20:29;;;;;;;0.35;0.10;;;25.40;60.40;;;;;;6232707;28;20038;-44
2023/08/20 19:23:30;;;;;;;0.20;0.17;;;25.60;61.00;;;;;;6231406;28;20028;-43
2023/08/20 19:26:33;;;;;;;0.15;0.10;;;25.30;61.10;;;;;;6230822;28;20080;-47
2023/08/20 19:29:34;;;;;;;0.10;0.10;;;25.40;60.90;;;;;;6232588;28;20073;-43
